Beighton, United Kingdom
Current Conditions -  °F | °C
As of 8:50 PM on Thursday 18 Dec 2014 (Local Time) from EGCN Reporting Station
Scattered Clouds Scattered Clouds  
Wind Chill: 57°   Ceiling: Unl
Heat Index: 57°   Visibility: 6mi
Dew Point: 50°   Wind: 23mph
Humidity: 77%   Direction: 230°SW
Pressure: 29.59"   Gusts: NA
Location:  53.33°N, 1.33°W
Report Text: EGCN 182050Z 23020KT 9999 FEW022 SCT028 14/10 Q1002
Loading
Personal Weather Stations






























Interactive Weather Map New forecast layout! Learn more

10-Day Weather Forecast

Advertisements
Track Severe Weather on mobile